createdAt,value
2022-08-26T00:01:29.704Z,32.97
2022-08-26T00:03:58.704Z,33.70
2022-08-26T00:06:27.470Z,37.70
2022-08-26T00:08:56.054Z,34.80
2022-08-26T00:11:26.663Z,40.53
2022-08-26T00:13:56.549Z,38.00
2022-08-26T00:16:25.874Z,34.47
2022-08-26T00:18:56.186Z,44.47
2022-08-26T00:21:25.274Z,36.65
2022-08-26T00:23:53.932Z,39.03
2022-08-26T00:26:22.488Z,42.30
2022-08-26T00:28:57.135Z,39.92
2022-08-26T00:31:25.921Z,30.40
2022-08-26T00:33:56.632Z,38.28
2022-08-26T00:36:25.398Z,43.28
2022-08-26T00:38:58.768Z,38.42
2022-08-26T00:41:27.651Z,35.05
2022-08-26T00:43:56.354Z,38.55
2022-08-26T00:46:31.442Z,40.70
2022-08-26T00:49:12.365Z,38.15
2022-08-26T00:51:47.074Z,40.85
2022-08-26T00:54:17.393Z,55.00
2022-08-26T00:56:54.069Z,45.65
2022-08-26T00:59:23.766Z,49.85
2022-08-26T01:01:53.457Z,40.15
2022-08-26T01:04:24.652Z,41.53
2022-08-26T01:06:56.012Z,48.38
2022-08-26T01:09:25.470Z,39.75
2022-08-26T01:11:57.699Z,43.58
2022-08-26T01:14:31.089Z,42.55
2022-08-26T01:17:00.739Z,47.80
2022-08-26T01:19:34.251Z,43.85
2022-08-26T01:22:07.884Z,56.13
2022-08-26T01:24:40.432Z,46.55
2022-08-26T01:27:11.487Z,39.42
2022-08-26T01:29:43.986Z,50.95
2022-08-26T01:32:18.561Z,43.10
2022-08-26T01:34:48.493Z,55.78
2022-08-26T01:37:21.670Z,44.83
2022-08-26T01:39:54.525Z,48.85
2022-08-26T01:42:26.138Z,44.60
2022-08-26T01:45:00.451Z,50.67
2022-08-26T01:47:32.080Z,53.28
2022-08-26T01:50:05.269Z,55.47
2022-08-26T01:52:37.074Z,51.55
2022-08-26T01:55:09.395Z,59.92
2022-08-26T01:57:38.437Z,56.55
2022-08-26T02:00:13.486Z,52.25
2022-08-26T02:02:47.507Z,50.40
2022-08-26T02:05:20.489Z,58.00
2022-08-26T02:07:50.836Z,53.45
2022-08-26T02:10:21.506Z,54.67
2022-08-26T02:12:50.428Z,59.65
2022-08-26T02:15:19.900Z,57.03
2022-08-26T02:17:52.685Z,60.85
2022-08-26T02:20:23.219Z,55.83
2022-08-26T02:22:52.421Z,60.47
2022-08-26T02:25:28.435Z,54.08
2022-08-26T02:27:57.709Z,60.13
2022-08-26T02:30:29.417Z,55.15
2022-08-26T02:33:01.608Z,59.13
2022-08-26T02:35:31.109Z,58.22
2022-08-26T02:38:01.455Z,58.97
2022-08-26T02:40:33.754Z,66.60
2022-08-26T02:43:04.935Z,64.03
2022-08-26T02:45:38.152Z,68.32
2022-08-26T02:48:11.738Z,64.40
2022-08-26T02:50:41.516Z,60.90
2022-08-26T02:53:12.346Z,59.00
2022-08-26T02:55:43.728Z,74.57
2022-08-26T02:58:12.664Z,72.90
2022-08-26T03:00:52.520Z,66.20
2022-08-26T03:03:23.525Z,68.32
2022-08-26T03:05:52.609Z,71.93
2022-08-26T03:08:22.241Z,74.20
2022-08-26T03:10:52.550Z,76.35
2022-08-26T03:13:21.550Z,66.75
2022-08-26T03:15:50.480Z,77.78
2022-08-26T03:18:19.246Z,75.95
2022-08-26T03:20:49.445Z,86.28
2022-08-26T03:23:18.599Z,84.55
2022-08-26T03:25:52.280Z,80.15
2022-08-26T03:28:21.582Z,85.00
2022-08-26T03:30:49.280Z,90.15
2022-08-26T03:33:19.139Z,76.95
2022-08-26T03:35:50.679Z,87.75
2022-08-26T03:38:20.613Z,78.93
2022-08-26T03:40:49.620Z,73.43
2022-08-26T03:43:22.408Z,85.20
2022-08-26T03:45:51.770Z,81.75
2022-08-26T03:48:21.443Z,82.15
2022-08-26T03:50:50.561Z,78.72
2022-08-26T03:53:20.552Z,84.80
2022-08-26T03:55:52.058Z,85.90
2022-08-26T03:58:24.226Z,74.55
2022-08-26T04:00:55.402Z,84.88
2022-08-26T04:03:38.617Z,86.45
2022-08-26T04:06:08.137Z,75.95
2022-08-26T04:08:38.775Z,81.63
2022-08-26T04:11:08.622Z,74.47
2022-08-26T04:13:40.719Z,82.07
2022-08-26T04:16:10.261Z,72.55
2022-08-26T04:18:42.088Z,71.75
2022-08-26T04:21:15.910Z,69.97
2022-08-26T04:23:47.668Z,64.45
2022-08-26T04:26:17.838Z,65.97
2022-08-26T04:28:48.492Z,68.50
2022-08-26T04:31:19.085Z,62.97
2022-08-26T04:33:49.969Z,56.67
2022-08-26T04:36:19.913Z,55.30
2022-08-26T04:38:50.684Z,50.08
2022-08-26T04:41:20.912Z,46.30
2022-08-26T04:43:52.367Z,47.38
2022-08-26T04:46:24.477Z,44.88
2022-08-26T04:48:55.180Z,37.92
2022-08-26T04:51:28.139Z,36.13
2022-08-26T04:53:57.448Z,32.90
2022-08-26T04:56:27.527Z,31.77
2022-08-26T04:58:58.995Z,30.40
2022-08-26T05:01:28.963Z,27.33
2022-08-26T05:03:58.562Z,24.58
2022-08-26T05:06:28.103Z,25.02
2022-08-26T05:08:57.737Z,22.98
2022-08-26T05:11:27.502Z,21.90
2022-08-26T05:14:02.158Z,20.23
2022-08-26T05:16:31.414Z,20.30
2022-08-26T05:19:00.269Z,21.35
2022-08-26T05:21:30.351Z,18.85
2022-08-26T05:24:00.484Z,18.85
2022-08-26T05:26:31.439Z,19.02
2022-08-26T05:29:02.139Z,19.83
2022-08-26T05:31:33.776Z,18.88
2022-08-26T05:34:04.730Z,19.67
2022-08-26T05:36:35.452Z,19.70
2022-08-26T05:39:06.218Z,20.27
2022-08-26T05:41:38.648Z,19.83
2022-08-26T05:44:11.687Z,20.58
2022-08-26T05:46:41.964Z,19.73
2022-08-26T05:49:13.884Z,20.17
2022-08-26T05:51:46.335Z,20.75
2022-08-26T05:54:22.359Z,20.38
2022-08-26T05:56:52.610Z,18.88
2022-08-26T05:59:24.538Z,19.20
2022-08-26T06:01:54.677Z,17.88
2022-08-26T06:04:27.962Z,17.33
2022-08-26T06:06:59.404Z,17.17
2022-08-26T06:09:28.587Z,14.48
2022-08-26T06:12:01.769Z,15.90
2022-08-26T06:14:32.583Z,17.35
2022-08-26T06:17:01.784Z,15.73
2022-08-26T06:19:33.147Z,14.73
2022-08-26T06:22:23.884Z,14.98
2022-08-26T06:25:10.139Z,14.70
2022-08-26T06:27:39.155Z,12.93
2022-08-26T06:30:11.263Z,12.90
2022-08-26T06:32:41.223Z,12.10
2022-08-26T06:35:11.891Z,15.73
2022-08-26T06:37:42.831Z,11.32
2022-08-26T06:40:12.497Z,11.82
2022-08-26T06:42:41.955Z,12.57
2022-08-26T06:45:14.198Z,9.98
2022-08-26T06:47:43.007Z,10.48
2022-08-26T06:50:11.642Z,14.95
2022-08-26T06:52:42.875Z,10.15
2022-08-26T06:55:11.834Z,9.80
2022-08-26T06:57:41.271Z,9.75
2022-08-26T07:00:12.081Z,10.57
2022-08-26T07:02:46.851Z,16.30
2022-08-26T07:05:16.267Z,8.10
2022-08-26T07:07:45.098Z,12.32
2022-08-26T07:10:14.909Z,10.57
2022-08-26T07:12:47.199Z,10.57
2022-08-26T07:15:16.400Z,12.07
2022-08-26T07:17:46.851Z,11.57
2022-08-26T07:20:16.119Z,11.32
2022-08-26T07:22:45.858Z,14.02
2022-08-26T07:25:14.853Z,7.93
2022-08-26T07:27:43.742Z,10.63
2022-08-26T07:30:14.846Z,7.05
2022-08-26T07:32:43.549Z,12.02
2022-08-26T07:35:14.076Z,6.95
2022-08-26T07:37:42.674Z,9.27
2022-08-26T07:40:11.827Z,12.02
2022-08-26T07:42:40.817Z,13.23
2022-08-26T07:45:09.662Z,6.75
2022-08-26T07:47:38.232Z,11.07
2022-08-26T07:50:07.401Z,7.50
2022-08-26T07:52:38.607Z,8.05
2022-08-26T07:55:11.074Z,14.88
2022-08-26T07:57:39.896Z,10.05
2022-08-26T08:00:14.603Z,8.88
2022-08-26T08:02:45.023Z,10.02
2022-08-26T08:05:17.459Z,9.55
2022-08-26T08:07:48.531Z,10.23
2022-08-26T08:10:25.156Z,9.55
2022-08-26T08:12:56.275Z,10.18
2022-08-26T08:15:27.858Z,10.20
2022-08-26T08:18:08.117Z,7.20
2022-08-26T08:20:47.621Z,9.85
2022-08-26T08:23:24.947Z,6.13
2022-08-26T08:26:02.723Z,10.63
2022-08-26T08:28:31.499Z,9.45
2022-08-26T08:31:02.206Z,8.38
2022-08-26T08:33:32.091Z,5.25
2022-08-26T08:36:01.886Z,6.55
2022-08-26T08:38:32.015Z,7.45
2022-08-26T08:41:01.099Z,6.63
2022-08-26T08:43:39.842Z,7.63
2022-08-26T08:46:12.335Z,7.97
2022-08-26T08:48:46.537Z,7.97
2022-08-26T08:51:22.566Z,9.30
2022-08-26T08:53:55.491Z,10.95
2022-08-26T08:56:29.778Z,6.70
2022-08-26T08:59:06.831Z,8.35
2022-08-26T09:01:56.486Z,9.90
2022-08-26T09:04:45.002Z,8.63
2022-08-26T09:07:19.096Z,9.38
2022-08-26T09:09:53.978Z,10.05
2022-08-26T09:12:29.446Z,9.75
2022-08-26T09:15:04.110Z,11.20
2022-08-26T09:17:45.710Z,10.82
2022-08-26T09:20:20.809Z,8.18
2022-08-26T09:22:49.600Z,7.25
2022-08-26T09:25:20.948Z,7.65
2022-08-26T09:27:52.402Z,12.13
2022-08-26T09:30:26.631Z,12.52
2022-08-26T09:33:01.374Z,5.07
2022-08-26T09:35:32.433Z,8.38
2022-08-26T09:38:01.165Z,5.40
2022-08-26T09:40:34.770Z,8.98
2022-08-26T09:43:15.804Z,12.23
2022-08-26T09:45:50.684Z,6.13
2022-08-26T09:48:31.015Z,6.07
2022-08-26T09:51:02.623Z,6.90
2022-08-26T09:53:36.839Z,7.05
2022-08-26T09:56:25.774Z,7.05
2022-08-26T09:58:57.849Z,15.95
2022-08-26T10:01:35.306Z,8.32
2022-08-26T10:04:08.704Z,8.48
2022-08-26T10:06:42.030Z,9.18
2022-08-26T10:09:17.550Z,9.45
2022-08-26T10:11:53.505Z,6.07
2022-08-26T10:14:27.651Z,6.60
2022-08-26T10:17:05.405Z,9.05
2022-08-26T10:19:48.285Z,6.65
2022-08-26T10:22:40.784Z,17.30
2022-08-26T10:25:14.353Z,8.60
2022-08-26T10:27:53.397Z,7.47
2022-08-26T10:30:25.944Z,9.52
2022-08-26T10:32:59.171Z,10.90
2022-08-26T10:35:29.127Z,4.68
2022-08-26T10:38:04.003Z,8.30
2022-08-26T10:40:42.301Z,12.45
2022-08-26T10:43:19.319Z,7.55
2022-08-26T10:45:52.038Z,6.13
2022-08-26T10:48:35.633Z,8.88
2022-08-26T10:51:05.729Z,7.65
2022-08-26T10:53:51.490Z,12.95
2022-08-26T10:56:41.396Z,5.72
2022-08-26T10:59:24.309Z,9.48
2022-08-26T11:02:04.117Z,11.45
2022-08-26T11:04:48.924Z,15.80
2022-08-26T11:07:35.151Z,8.50
2022-08-26T11:10:08.039Z,7.75
2022-08-26T11:12:52.411Z,8.20
2022-08-26T11:16:11.149Z,9.38
2022-08-26T11:18:44.720Z,11.02
2022-08-26T11:21:52.038Z,9.27
2022-08-26T11:24:40.668Z,9.68
2022-08-26T11:27:13.481Z,7.60
2022-08-26T11:30:03.023Z,8.68
2022-08-26T11:32:50.467Z,14.80
2022-08-26T11:35:49.732Z,7.95
2022-08-26T11:38:30.672Z,8.45
2022-08-26T11:41:11.937Z,9.20
2022-08-26T11:43:42.629Z,8.27
2022-08-26T11:46:13.404Z,6.15
2022-08-26T11:48:44.206Z,6.65
2022-08-26T11:51:23.064Z,10.38
2022-08-26T11:53:52.232Z,8.32
2022-08-26T11:56:31.677Z,10.75
2022-08-26T11:59:04.443Z,9.43
2022-08-26T12:01:36.874Z,11.70
2022-08-26T12:04:08.408Z,9.98
2022-08-26T12:06:45.199Z,4.78
2022-08-26T12:09:21.790Z,8.48
2022-08-26T12:11:50.478Z,5.32
2022-08-26T12:14:21.278Z,9.48
2022-08-26T12:16:50.024Z,8.30
2022-08-26T12:19:27.460Z,6.50
2022-08-26T12:22:09.233Z,7.78
2022-08-26T12:24:44.901Z,6.32
2022-08-26T12:27:21.904Z,5.38
2022-08-26T12:30:03.533Z,6.32
2022-08-26T12:32:36.363Z,9.10
2022-08-26T12:35:08.342Z,10.82
2022-08-26T12:37:41.144Z,7.05
2022-08-26T12:40:44.095Z,10.98
2022-08-26T12:43:17.359Z,6.80
2022-08-26T12:45:59.914Z,10.73
2022-08-26T12:48:31.147Z,10.30
2022-08-26T12:51:01.616Z,13.00
2022-08-26T12:53:34.838Z,10.27
2022-08-26T12:56:18.502Z,13.55
2022-08-26T12:59:06.296Z,8.95
2022-08-26T13:01:42.909Z,7.57
2022-08-26T13:04:33.949Z,10.27
2022-08-26T13:07:20.128Z,8.80
2022-08-26T13:09:51.583Z,11.30
2022-08-26T13:12:28.378Z,7.40
2022-08-26T13:14:58.759Z,8.57
2022-08-26T13:17:28.210Z,10.52
2022-08-26T13:20:01.266Z,7.43
2022-08-26T13:22:32.257Z,9.20
2022-08-26T13:25:02.259Z,8.98
2022-08-26T13:27:31.233Z,10.10
2022-08-26T13:30:01.588Z,8.07
2022-08-26T13:32:30.482Z,7.10
2022-08-26T13:34:59.102Z,5.70
2022-08-26T13:37:34.720Z,5.85
2022-08-26T13:40:07.997Z,5.85
2022-08-26T13:42:36.779Z,14.52
2022-08-26T13:45:18.874Z,4.95
2022-08-26T13:47:47.959Z,8.90
2022-08-26T13:50:16.667Z,12.05
2022-08-26T13:52:45.196Z,13.82
2022-08-26T13:55:15.156Z,9.38
2022-08-26T13:57:43.796Z,9.02
2022-08-26T14:00:13.621Z,10.73
2022-08-26T14:02:42.259Z,7.40
2022-08-26T14:05:10.990Z,6.30
2022-08-26T14:07:39.542Z,11.55
2022-08-26T14:10:09.140Z,14.90
2022-08-26T14:12:39.810Z,6.85
2022-08-26T14:15:09.644Z,12.35
2022-08-26T14:17:38.475Z,23.95
2022-08-26T14:20:10.305Z,6.85
2022-08-26T14:22:57.444Z,10.52
2022-08-26T14:25:31.769Z,10.40
2022-08-26T14:28:01.882Z,22.92
2022-08-26T14:30:30.473Z,12.68
2022-08-26T14:33:00.341Z,8.25
2022-08-26T14:35:31.966Z,9.15
2022-08-26T14:38:00.571Z,5.60
2022-08-26T14:40:32.012Z,6.28
2022-08-26T14:43:03.943Z,11.45
2022-08-26T14:48:17.007Z,9.20
2022-08-26T14:50:46.382Z,7.90
2022-08-26T14:53:33.533Z,8.38
2022-08-26T14:56:02.211Z,8.70
2022-08-26T14:58:32.155Z,12.55
2022-08-26T15:01:04.217Z,7.88
2022-08-26T15:03:33.356Z,6.07
2022-08-26T15:06:02.000Z,22.77
2022-08-26T15:08:32.728Z,8.00
2022-08-26T15:11:01.677Z,14.50
2022-08-26T15:13:32.472Z,6.75
2022-08-26T15:16:01.288Z,8.80
2022-08-26T15:18:31.669Z,11.65
2022-08-26T15:21:00.535Z,12.20
2022-08-26T15:23:29.453Z,8.23
2022-08-26T15:25:58.474Z,14.43
2022-08-26T15:28:27.602Z,11.40
2022-08-26T15:30:58.042Z,3.90
2022-08-26T15:33:26.616Z,6.07
2022-08-26T15:35:55.868Z,8.15
2022-08-26T15:38:24.412Z,13.57
2022-08-26T15:40:52.926Z,7.97
2022-08-26T15:43:28.682Z,9.57
2022-08-26T15:46:00.006Z,10.68
2022-08-26T15:48:28.973Z,12.32
2022-08-26T15:51:00.316Z,16.27
2022-08-26T15:53:31.300Z,22.17
2022-08-26T15:56:00.982Z,9.57
2022-08-26T15:58:30.793Z,9.25
2022-08-26T16:01:01.146Z,7.95
2022-08-26T16:03:29.719Z,14.50
2022-08-26T16:05:58.433Z,7.47
2022-08-26T16:08:27.177Z,14.27
2022-08-26T16:11:03.494Z,9.00
2022-08-26T16:13:36.368Z,7.32
2022-08-26T16:16:10.634Z,6.15
2022-08-26T16:18:39.796Z,10.25
2022-08-26T16:21:13.241Z,9.10
2022-08-26T16:23:44.940Z,17.40
2022-08-26T16:26:16.757Z,16.27
2022-08-26T16:28:46.354Z,7.70
2022-08-26T16:31:17.515Z,14.18
2022-08-26T16:33:46.347Z,9.48
2022-08-26T16:36:15.237Z,11.00
2022-08-26T16:38:50.061Z,20.92
2022-08-26T16:41:19.268Z,21.08
2022-08-26T16:43:48.568Z,28.92
2022-08-26T16:46:19.128Z,43.08
2022-08-26T16:48:48.788Z,16.50
2022-08-26T16:51:19.771Z,8.65
2022-08-26T16:53:48.693Z,6.60
2022-08-26T16:56:20.691Z,13.50
2022-08-26T16:58:50.389Z,10.80
2022-08-26T17:01:21.672Z,11.50
2022-08-26T17:03:51.108Z,6.55
2022-08-26T17:06:19.881Z,8.65
2022-08-26T17:08:49.265Z,21.13
2022-08-26T17:11:18.676Z,14.55
2022-08-26T17:13:47.630Z,15.13
2022-08-26T17:16:16.748Z,13.48
2022-08-26T17:18:47.268Z,8.23
2022-08-26T17:21:15.854Z,9.77
2022-08-26T17:23:44.971Z,10.40
2022-08-26T17:26:14.000Z,20.75
2022-08-26T17:28:42.879Z,15.32
2022-08-26T17:31:13.177Z,13.40
2022-08-26T17:33:42.548Z,12.23
2022-08-26T17:36:13.214Z,9.63
2022-08-26T17:38:42.386Z,18.65
2022-08-26T17:41:16.078Z,7.68
2022-08-26T17:43:45.082Z,18.95
2022-08-26T17:46:14.189Z,11.93
2022-08-26T17:48:42.722Z,9.35
2022-08-26T17:51:14.378Z,14.45
2022-08-26T17:53:43.700Z,13.55
2022-08-26T17:56:15.055Z,13.52
2022-08-26T17:58:51.079Z,18.27
2022-08-26T18:01:20.769Z,13.77
2022-08-26T18:03:49.826Z,14.40
2022-08-26T18:06:20.983Z,10.35
2022-08-26T18:08:49.769Z,9.55
2022-08-26T18:11:20.330Z,8.90
2022-08-26T18:13:49.406Z,4.57
2022-08-26T18:16:19.937Z,6.80
2022-08-26T18:18:51.782Z,9.43
2022-08-26T18:21:24.440Z,7.05
2022-08-26T18:23:54.273Z,14.43
2022-08-26T18:26:25.311Z,8.43
2022-08-26T18:28:54.767Z,9.95
2022-08-26T18:31:23.925Z,7.93
2022-08-26T18:33:52.980Z,12.88
2022-08-26T18:36:25.146Z,13.45
2022-08-26T18:38:54.432Z,10.85
2022-08-26T18:41:25.797Z,11.25
2022-08-26T18:43:55.098Z,8.35
2022-08-26T18:46:26.222Z,6.35
2022-08-26T18:48:55.957Z,5.50
2022-08-26T18:51:29.624Z,8.30
2022-08-26T18:53:59.347Z,11.25
2022-08-26T18:56:28.883Z,16.67
2022-08-26T18:58:58.326Z,10.50
2022-08-26T19:01:28.431Z,11.93
2022-08-26T19:03:58.203Z,6.63
2022-08-26T19:06:33.016Z,12.65
2022-08-26T19:09:01.926Z,10.25
2022-08-26T19:11:31.683Z,10.55
2022-08-26T19:14:01.891Z,7.60
2022-08-26T19:16:32.230Z,7.80
2022-08-26T19:19:02.069Z,8.73
2022-08-26T19:21:34.127Z,5.47
2022-08-26T19:24:05.856Z,12.93
2022-08-26T19:26:34.960Z,7.13
2022-08-26T19:29:03.774Z,16.45
2022-08-26T19:31:32.474Z,13.07
2022-08-26T19:34:01.181Z,9.15
2022-08-26T19:36:31.863Z,10.85
2022-08-26T19:39:01.578Z,11.13
2022-08-26T19:41:36.783Z,11.85
2022-08-26T19:44:10.306Z,9.20
2022-08-26T19:46:39.826Z,7.72
2022-08-26T19:49:08.898Z,12.63
2022-08-26T19:51:38.941Z,13.05
2022-08-26T19:54:07.697Z,16.35
2022-08-26T19:56:36.507Z,10.98
2022-08-26T19:59:05.128Z,10.50
2022-08-26T20:01:33.964Z,11.63
2022-08-26T20:04:02.835Z,9.52
2022-08-26T20:06:31.485Z,8.55
2022-08-26T20:09:01.749Z,13.48
2022-08-26T20:11:31.169Z,11.88
2022-08-26T20:13:59.982Z,11.05
2022-08-26T20:16:28.853Z,15.82
2022-08-26T20:19:14.861Z,12.18
2022-08-26T20:21:43.690Z,9.05
2022-08-26T20:24:17.592Z,12.07
2022-08-26T20:26:46.849Z,6.38
2022-08-26T20:29:19.092Z,12.80
2022-08-26T20:31:49.079Z,11.77
2022-08-26T20:34:19.862Z,11.68
2022-08-26T20:36:50.985Z,9.13
2022-08-26T20:39:22.530Z,9.18
2022-08-26T20:41:51.440Z,11.75
2022-08-26T20:44:20.236Z,10.65
2022-08-26T20:46:49.460Z,13.25
2022-08-26T20:49:18.450Z,10.27
2022-08-26T20:51:51.430Z,12.48
2022-08-26T20:54:27.498Z,13.27
2022-08-26T20:56:58.431Z,12.52
2022-08-26T20:59:28.322Z,10.90
2022-08-26T21:01:57.110Z,10.27
2022-08-26T21:04:29.221Z,8.70
2022-08-26T21:06:58.360Z,9.07
2022-08-26T21:09:28.899Z,7.10
2022-08-26T21:11:59.544Z,12.40
2022-08-26T21:14:28.339Z,10.65
2022-08-26T21:16:58.548Z,10.68
2022-08-26T21:19:27.180Z,9.35
2022-08-26T21:21:55.875Z,13.25
2022-08-26T21:24:24.411Z,11.15
2022-08-26T21:26:54.299Z,7.38
2022-08-26T21:29:23.058Z,10.75
2022-08-26T21:31:51.796Z,12.20
2022-08-26T21:34:21.086Z,16.88
2022-08-26T21:36:50.644Z,13.55
2022-08-26T21:39:19.479Z,10.23
2022-08-26T21:41:48.350Z,14.10
2022-08-26T21:44:19.175Z,11.15
2022-08-26T21:46:49.040Z,7.90
2022-08-26T21:49:18.243Z,8.52
2022-08-26T21:51:49.203Z,10.02
2022-08-26T21:54:18.585Z,11.32
2022-08-26T21:56:48.798Z,12.35
2022-08-26T21:59:20.240Z,10.00
2022-08-26T22:01:48.956Z,13.07
2022-08-26T22:04:18.166Z,12.10
2022-08-26T22:06:49.753Z,10.13
2022-08-26T22:09:21.347Z,9.07
2022-08-26T22:11:50.582Z,12.05
2022-08-26T22:14:25.403Z,10.27
2022-08-26T22:16:57.020Z,12.02
2022-08-26T22:19:26.703Z,8.80
2022-08-26T22:21:56.823Z,12.38
2022-08-26T22:24:27.265Z,9.35
2022-08-26T22:26:56.928Z,13.88
2022-08-26T22:29:27.600Z,12.32
2022-08-26T22:31:57.331Z,7.95
2022-08-26T22:34:26.362Z,8.27
2022-08-26T22:36:55.218Z,8.52
2022-08-26T22:39:26.711Z,13.00
2022-08-26T22:41:56.959Z,12.32
2022-08-26T22:44:27.564Z,14.18
2022-08-26T22:46:57.040Z,13.40
2022-08-26T22:49:26.351Z,13.98
2022-08-26T22:51:55.097Z,9.18
2022-08-26T22:54:23.652Z,16.83
2022-08-26T22:56:52.238Z,11.32
2022-08-26T22:59:20.918Z,11.05
2022-08-26T23:01:51.644Z,7.95
2022-08-26T23:04:20.716Z,10.57
2022-08-26T23:06:49.524Z,9.82
2022-08-26T23:09:19.175Z,9.48
2022-08-26T23:11:49.627Z,12.48
2022-08-26T23:14:19.419Z,15.05
2022-08-26T23:16:48.641Z,12.25
2022-08-26T23:19:24.349Z,11.90
2022-08-26T23:21:53.484Z,9.52
2022-08-26T23:24:22.349Z,9.60
2022-08-26T23:26:51.163Z,15.45
2022-08-26T23:29:19.839Z,9.82
2022-08-26T23:31:48.722Z,10.13
2022-08-26T23:34:36.621Z,9.07
2022-08-26T23:37:05.710Z,10.10
2022-08-26T23:39:36.304Z,8.95
2022-08-26T23:42:06.556Z,11.35
2022-08-26T23:44:35.482Z,9.82
2022-08-26T23:47:04.900Z,10.50
2022-08-26T23:49:35.658Z,11.35
2022-08-26T23:52:23.273Z,10.65
2022-08-26T23:54:52.850Z,9.25
2022-08-26T23:57:23.153Z,16.50
2022-08-26T23:59:51.790Z,9.93
